Time;durP1;ratioP1;P1;durP2;ratioP2;P2;SDS_P1;SDS_P2;PMS_P1;PMS_P2;Temp;Humidity;BMP_temperature;BMP_pressure;BME280_temperature;BME280_humidity;BME280_pressure;Samples;Min_cycle;Max_cycle;Signal;HPM_P1;HPM_P2
2021/10/30 00:01:57;;;;;;;10.98;6.00;;;;;;;5.10;79.97;97358.81;5092809;28;20029;-61
2021/10/30 00:04:23;;;;;;;10.45;5.90;;;;;;;5.16;79.61;97359.69;5094569;28;20086;-62
2021/10/30 00:06:49;;;;;;;8.07;5.80;;;;;;;5.16;79.58;97359.69;5096329;28;20027;-60
2021/10/30 00:09:14;;;;;;;7.20;5.82;;;;;;;5.21;79.76;97354.44;5096236;28;20031;-61
2021/10/30 00:11:40;;;;;;;8.40;6.13;;;;;;;5.16;80.09;97353.63;5096187;28;20103;-62
2021/10/30 00:14:05;;;;;;;10.23;6.13;;;;;;;5.24;80.19;97346.66;5096162;28;20027;-61
2021/10/30 00:16:31;;;;;;;7.97;6.28;;;;;;;5.30;80.00;97357.03;5096144;28;20111;-62
2021/10/30 00:18:56;;;;;;;8.18;6.15;;;;;;;5.34;80.02;97357.88;5096115;28;20114;-63
2021/10/30 00:21:22;;;;;;;8.23;5.75;;;;;;;5.42;80.12;97357.88;5096052;28;20024;-62
2021/10/30 00:23:48;;;;;;;11.32;5.60;;;;;;;5.45;79.87;97347.47;5095833;28;20065;-63
2021/10/30 00:26:13;;;;;;;12.63;6.82;;;;;;;5.49;79.64;97343.09;5095902;28;20069;-63
2021/10/30 00:28:39;;;;;;;6.80;5.55;;;;;;;5.55;80.00;97346.56;5095909;28;20032;-63
2021/10/30 00:31:05;;;;;;;7.93;5.60;;;;;;;5.54;79.99;97342.22;5095932;28;20543;-65
2021/10/30 00:33:30;;;;;;;6.60;5.43;;;;;;;5.59;79.79;97344.78;5095694;28;20095;-65
2021/10/30 00:35:56;;;;;;;8.55;7.00;;;;;;;5.58;79.90;97340.47;5095780;28;20086;-61
2021/10/30 00:38:22;;;;;;;9.23;6.60;;;;;;;5.66;80.04;97330.06;5095731;28;20065;-63
2021/10/30 00:40:47;;;;;;;8.85;6.25;;;;;;;5.68;80.31;97330.91;5095602;28;20185;-65
2021/10/30 00:43:13;;;;;;;10.55;8.00;;;;;;;5.68;80.58;97333.50;5095490;28;20470;-63
2021/10/30 00:45:39;;;;;;;12.05;7.63;;;;;;;5.74;80.77;97332.59;5095539;28;20378;-61
2021/10/30 00:48:04;;;;;;;8.85;6.50;;;;;;;5.78;80.68;97331.72;5095476;28;20024;-64
2021/10/30 00:50:30;;;;;;;11.20;6.15;;;;;;;5.79;80.39;97323.91;5095414;28;20043;-64
2021/10/30 00:52:58;;;;;;;9.02;6.03;;;;;;;5.85;80.20;97329.94;5095436;28;20020;-62
2021/10/30 00:55:26;;;;;;;12.40;7.05;;;;;;;5.89;79.84;97327.31;5095237;28;20031;-64
2021/10/30 00:57:54;;;;;;;13.88;7.15;;;;;;;5.89;80.07;97329.91;5095185;28;20358;-63
2021/10/30 01:00:20;;;;;;;10.10;6.93;;;;;;;5.86;80.24;97326.44;5095146;28;20447;-63
2021/10/30 01:02:46;;;;;;;9.98;7.47;;;;;;;5.88;80.31;97328.19;5095244;28;20084;-61
2021/10/30 01:05:11;;;;;;;9.63;6.60;;;;;;;5.98;80.74;97328.97;5095050;28;20370;-60
2021/10/30 01:07:37;;;;;;;9.63;6.50;;;;;;;6.02;80.50;97329.84;5095167;28;20016;-64
2021/10/30 01:10:03;;;;;;;10.85;7.20;;;;;;;6.07;80.48;97328.94;5095112;28;20420;-65
2021/10/30 01:12:30;;;;;;;9.52;6.93;;;;;;;6.12;80.07;97322.84;5094905;28;20031;-62
2021/10/30 01:14:57;;;;;;;13.00;6.60;;;;;;;6.10;79.92;97324.59;5094805;28;20055;-65
2021/10/30 01:17:22;;;;;;;19.25;14.65;;;;;;;6.09;80.18;97323.75;5094931;28;20097;-64
2021/10/30 01:19:52;;;;;;;13.77;10.68;;;;;;;6.14;80.71;97327.16;5094790;28;20485;-61
2021/10/30 01:22:19;;;;;;;16.90;13.00;;;;;;;6.18;80.61;97321.06;5094745;28;20016;-64
2021/10/30 01:24:45;;;;;;;12.30;8.52;;;;;;;6.21;80.58;97317.59;5094495;28;20122;-65
2021/10/30 01:27:11;;;;;;;11.90;9.65;;;;;;;6.15;80.64;97315.91;5094876;28;20091;-62
2021/10/30 01:29:37;;;;;;;10.43;8.85;;;;;;;6.21;80.56;97309.81;5094710;28;20020;-61
2021/10/30 01:32:04;;;;;;;10.38;7.65;;;;;;;6.27;80.38;97317.56;5094656;28;20099;-62
2021/10/30 01:34:29;;;;;;;13.75;8.70;;;;;;;6.24;80.10;97312.38;5094733;28;20017;-63
2021/10/30 01:36:55;;;;;;;15.20;10.50;;;;;;;6.25;80.29;97316.69;5094435;28;20493;-61
2021/10/30 01:39:23;;;;;;;16.98;10.77;;;;;;;6.31;80.39;97314.03;5094447;28;20020;-63
2021/10/30 01:41:49;;;;;;;17.17;11.43;;;;;;;6.32;80.55;97315.75;5094375;28;20056;-61
2021/10/30 01:44:14;;;;;;;17.38;12.18;;;;;;;6.35;80.55;97312.25;5094405;28;20078;-65
2021/10/30 01:46:40;;;;;;;16.23;10.60;;;;;;;6.38;80.67;97314.00;5094326;28;20097;-65
2021/10/30 01:49:06;;;;;;;13.00;9.18;;;;;;;6.41;80.28;97324.38;5094327;28;20031;-63
2021/10/30 01:51:31;;;;;;;12.32;8.52;;;;;;;6.42;80.01;97318.28;5094265;28;20047;-63
2021/10/30 01:53:58;;;;;;;13.65;8.25;;;;;;;6.41;80.33;97319.16;5094242;28;20028;-61
2021/10/30 01:56:24;;;;;;;13.70;8.75;;;;;;;6.42;80.44;97329.53;5094078;28;20483;-60
2021/10/30 01:58:49;;;;;;;15.27;10.40;;;;;;;6.39;80.36;97326.97;5093827;28;20127;-65
2021/10/30 02:01:15;;;;;;;12.73;9.82;;;;;;;6.37;80.76;97317.44;5094305;28;20039;-63
2021/10/30 02:03:41;;;;;;;16.75;9.77;;;;;;;6.35;80.99;97320.06;5094008;28;20027;-62
2021/10/30 02:06:08;;;;;;;13.48;8.82;;;;;;;6.46;80.84;97330.38;5094048;28;20035;-62
2021/10/30 02:08:34;;;;;;;15.95;8.60;;;;;;;6.48;80.25;97325.16;5093905;28;20020;-62
2021/10/30 02:11:00;;;;;;;13.57;9.27;;;;;;;6.49;80.48;97329.47;5093884;28;20098;-64
2021/10/30 02:13:26;;;;;;;11.90;8.93;;;;;;;6.44;80.31;97325.19;5093771;28;20020;-61
2021/10/30 02:15:52;;;;;;;15.60;9.50;;;;;;;6.48;80.57;97331.22;5093806;28;20016;-65
2021/10/30 02:18:18;;;;;;;17.80;9.77;;;;;;;6.51;80.93;97333.81;5093796;28;20158;-61
2021/10/30 02:20:44;;;;;;;11.65;8.38;;;;;;;6.55;80.88;97327.69;5093814;28;20021;-64
2021/10/30 02:23:10;;;;;;;12.45;8.77;;;;;;;6.57;80.91;97323.31;5093649;28;20028;-60
2021/10/30 02:25:36;;;;;;;10.65;8.18;;;;;;;6.61;80.65;97323.28;5093460;28;20039;-65
2021/10/30 02:28:02;;;;;;;14.23;8.32;;;;;;;6.61;80.36;97326.78;5093298;28;20066;-64
2021/10/30 02:30:28;;;;;;;11.55;8.82;;;;;;;6.65;80.58;97323.25;5093658;28;20107;-62
2021/10/30 02:32:54;;;;;;;12.02;8.13;;;;;;;6.69;80.16;97326.69;5093544;28;20056;-66
2021/10/30 02:35:20;;;;;;;12.75;8.35;;;;;;;6.69;79.96;97329.31;5093526;28;20519;-61
2021/10/30 02:37:46;;;;;;;13.10;9.85;;;;;;;6.69;80.48;97331.91;5093621;28;20027;-64
2021/10/30 02:40:11;;;;;;;15.32;9.25;;;;;;;6.72;80.22;97326.69;5093389;28;20020;-62
2021/10/30 02:42:37;;;;;;;10.50;8.82;;;;;;;6.74;80.03;97326.66;5093525;28;20031;-62
2021/10/30 02:45:05;;;;;;;13.55;9.63;;;;;;;6.74;80.15;97321.47;5093227;28;20533;-63
2021/10/30 02:47:31;;;;;;;20.08;10.35;;;;;;;6.73;80.05;97330.13;5093348;28;20020;-66
2021/10/30 02:49:56;;;;;;;15.77;10.32;;;;;;;6.75;80.26;97329.25;5093336;28;20500;-62
2021/10/30 02:52:22;;;;;;;17.77;10.10;;;;;;;6.73;80.16;97322.31;5093251;28;20024;-63
2021/10/30 02:54:48;;;;;;;14.52;9.90;;;;;;;6.72;80.27;97324.06;5093373;28;20059;-64
2021/10/30 02:57:13;;;;;;;14.73;9.70;;;;;;;6.64;80.42;97323.28;5093189;28;20028;-62
2021/10/30 02:59:39;;;;;;;13.93;8.43;;;;;;;6.62;80.07;97325.88;5092980;28;20555;-63
2021/10/30 03:02:05;;;;;;;13.02;9.40;;;;;;;6.60;81.13;97324.19;5093274;28;20051;-62
2021/10/30 03:04:30;;;;;;;12.95;9.00;;;;;;;6.50;81.27;97319.06;5093125;28;20401;-62
2021/10/30 03:06:56;;;;;;;13.82;8.88;;;;;;;6.44;80.72;97325.19;5093032;28;20389;-64
2021/10/30 03:09:22;;;;;;;12.90;9.45;;;;;;;6.45;80.39;97326.06;5093143;28;20019;-64
2021/10/30 03:11:47;;;;;;;14.57;10.05;;;;;;;6.44;79.92;97329.50;5093309;28;20024;-60
2021/10/30 03:14:13;;;;;;;13.63;7.82;;;;;;;6.42;79.13;97326.91;5093079;28;20052;-62
2021/10/30 03:16:39;;;;;;;12.18;8.75;;;;;;;6.32;78.89;97330.47;5093119;28;20363;-65
2021/10/30 03:19:04;;;;;;;12.88;8.90;;;;;;;6.20;78.97;97334.03;5092995;28;20381;-60
2021/10/30 03:21:30;;;;;;;17.38;11.00;;;;;;;6.10;79.63;97329.78;5074895;28;20415;-61
2021/10/30 03:23:55;;;;;;;14.57;10.23;;;;;;;6.13;79.68;97332.34;5092993;28;20079;-61
2021/10/30 03:26:21;;;;;;;12.95;8.30;;;;;;;6.08;79.67;97329.78;5093139;28;20028;-62
2021/10/30 03:28:46;;;;;;;14.65;9.32;;;;;;;6.10;79.52;97333.25;5092987;28;20462;-64
2021/10/30 03:31:12;;;;;;;10.00;8.10;;;;;;;6.13;79.21;97334.97;5092871;28;20024;-61
2021/10/30 03:33:38;;;;;;;13.90;9.20;;;;;;;6.09;79.38;97326.34;5092802;28;20089;-65
2021/10/30 03:36:04;;;;;;;14.68;9.52;;;;;;;6.10;79.86;97330.66;5092871;28;20028;-61
2021/10/30 03:38:30;;;;;;;15.13;9.77;;;;;;;6.07;80.37;97333.28;5093616;28;20386;-62
2021/10/30 03:40:56;;;;;;;13.25;9.18;;;;;;;6.13;80.02;97337.56;5096892;28;20016;-62
2021/10/30 03:43:22;;;;;;;12.80;8.60;;;;;;;6.13;79.97;97340.16;5096667;28;20038;-61
2021/10/30 03:45:47;;;;;;;41.30;28.70;;;;;;;6.16;79.83;97342.72;5096650;28;20031;-63
2021/10/30 03:48:17;;;;;;;15.90;10.93;;;;;;;6.01;79.94;97334.16;5096641;28;20024;-61
2021/10/30 03:50:43;;;;;;;15.88;11.45;;;;;;;6.00;80.58;97334.16;5096630;28;20119;-61
2021/10/30 03:53:08;;;;;;;14.00;9.63;;;;;;;6.06;80.84;97336.75;5096517;28;20106;-64
2021/10/30 03:55:34;;;;;;;13.60;9.70;;;;;;;6.09;80.78;97343.66;5096579;28;20377;-65
2021/10/30 03:57:59;;;;;;;13.77;9.13;;;;;;;6.14;80.55;97336.72;5096418;28;20019;-62
2021/10/30 04:00:25;;;;;;;12.18;8.35;;;;;;;6.13;80.32;97338.44;5096365;28;20059;-64
2021/10/30 04:02:51;;;;;;;12.02;8.43;;;;;;;6.15;80.35;97335.81;5096383;28;20107;-62
2021/10/30 04:05:16;;;;;;;12.75;8.90;;;;;;;6.14;80.56;97334.09;5094953;28;20123;-62
2021/10/30 04:07:42;;;;;;;12.85;10.05;;;;;;;6.13;80.43;97330.63;5096292;28;20497;-64
2021/10/30 04:10:09;;;;;;;12.63;9.07;;;;;;;6.15;80.38;97334.09;5096249;28;20024;-60
2021/10/30 04:12:35;;;;;;;11.95;8.50;;;;;;;6.17;80.17;97332.34;5096220;28;20024;-65
2021/10/30 04:15:00;;;;;;;12.20;8.77;;;;;;;6.14;80.30;97336.72;5096138;28;20057;-63
2021/10/30 04:17:26;;;;;;;14.80;9.05;;;;;;;6.15;80.58;97333.22;5096055;28;20035;-64
2021/10/30 04:19:52;;;;;;;10.95;8.65;;;;;;;6.04;80.43;97339.38;5095953;28;20031;-62
2021/10/30 04:22:17;;;;;;;11.75;8.57;;;;;;;5.95;80.61;97334.19;5095931;28;20487;-61
2021/10/30 04:24:43;;;;;;;12.73;9.65;;;;;;;5.98;80.71;97338.50;5095919;28;20509;-62
2021/10/30 04:27:09;;;;;;;9.40;8.13;;;;;;;6.04;79.96;97344.56;5096004;28;20408;-62
2021/10/30 04:29:34;;;;;;;14.68;9.70;;;;;;;6.07;80.49;97341.94;5095982;28;20042;-64
2021/10/30 04:32:02;;;;;;;13.07;8.93;;;;;;;6.04;81.18;97349.75;5095827;28;20024;-62
2021/10/30 04:34:41;;;;;;;12.68;8.75;;;;;;;6.00;81.35;97348.03;5095728;28;20020;-61
2021/10/30 04:37:15;;;;;;;13.02;10.20;;;;;;;5.96;81.56;97348.06;5095775;28;20081;-62
2021/10/30 04:39:42;;;;;;;20.13;10.98;;;;;;;5.94;81.93;97342.88;5095750;28;20469;-61
2021/10/30 04:42:08;;;;;;;17.73;10.70;;;;;;;5.94;82.07;97346.31;5095566;28;20031;-61
2021/10/30 04:44:34;;;;;;;15.93;10.68;;;;;;;6.00;82.25;97337.63;5095514;28;20025;-63
2021/10/30 04:46:59;;;;;;;12.98;9.35;;;;;;;5.96;82.17;97341.09;5095571;28;20481;-64
2021/10/30 04:49:25;;;;;;;10.32;8.45;;;;;;;5.95;82.32;97331.59;5094912;28;20024;-62
2021/10/30 04:51:50;;;;;;;15.15;8.60;;;;;;;5.97;81.26;97345.44;5095596;28;20028;-65
2021/10/30 04:54:16;;;;;;;12.50;8.75;;;;;;;5.94;81.32;97345.47;5095434;28;20059;-63
2021/10/30 04:56:41;;;;;;;10.52;8.07;;;;;;;5.93;81.81;97341.16;5095235;28;20103;-62
2021/10/30 04:59:07;;;;;;;10.07;8.43;;;;;;;5.96;82.22;97341.09;5095060;28;20043;-61
2021/10/30 05:01:33;;;;;;;15.07;9.52;;;;;;;6.03;82.03;97344.53;5095365;28;20470;-62
2021/10/30 05:03:58;;;;;;;17.27;10.18;;;;;;;6.06;81.33;97347.16;5095069;28;20058;-63
2021/10/30 05:06:24;;;;;;;10.35;7.00;;;;;;;6.07;80.07;97349.75;5095107;28;20052;-61
2021/10/30 05:08:50;;;;;;;11.43;8.07;;;;;;;6.05;80.05;97348.03;5095063;28;20043;-64
2021/10/30 05:11:15;;;;;;;12.88;8.70;;;;;;;6.02;80.01;97353.22;5095065;28;20066;-64
2021/10/30 05:13:41;;;;;;;12.70;8.45;;;;;;;6.02;79.89;97345.41;5095170;28;20107;-62
2021/10/30 05:16:06;;;;;;;12.80;9.02;;;;;;;6.07;79.62;97351.47;5095146;28;20039;-64
2021/10/30 05:18:32;;;;;;;11.48;8.10;;;;;;;6.15;79.20;97349.69;5094934;28;20530;-62
2021/10/30 05:20:57;;;;;;;10.15;7.10;;;;;;;6.24;78.81;97360.88;5094775;28;20025;-65
2021/10/30 05:23:23;;;;;;;13.40;7.60;;;;;;;6.27;78.74;97353.06;5094741;28;20107;-62
2021/10/30 05:25:49;;;;;;;8.65;6.60;;;;;;;6.34;77.94;97359.06;5094575;28;20055;-64
2021/10/30 05:28:20;;;;;;;9.80;6.95;;;;;;;6.55;77.27;97358.03;5094750;28;20020;-64
2021/10/30 05:30:50;;;;;;;8.40;5.47;;;;;;;7.58;73.68;97364.72;5094685;28;20061;-63
2021/10/30 05:33:16;;;;;;;8.65;4.97;;;;;;;9.01;70.13;97356.47;5094567;28;20024;-62
2021/10/30 05:35:41;;;;;;;6.75;5.00;;;;;;;10.49;65.05;97355.09;5094588;28;20026;-63
2021/10/30 05:38:07;;;;;;;6.78;4.72;;;;;;;11.87;60.62;97360.97;5094678;28;20468;-63
2021/10/30 05:40:34;;;;;;;7.97;4.55;;;;;;;13.19;56.19;97354.16;5094490;28;20019;-63
2021/10/30 05:43:00;;;;;;;4.80;4.18;;;;;;;14.36;52.70;97349.81;5094360;28;20374;-63
2021/10/30 05:45:26;;;;;;;7.13;4.65;;;;;;;15.40;49.58;97345.44;5094269;28;20028;-63
2021/10/30 05:47:51;;;;;;;4.95;3.80;;;;;;;16.20;48.04;97362.97;5094462;28;20358;-61
2021/10/30 05:50:17;;;;;;;5.72;3.63;;;;;;;17.20;44.59;97358.09;5094378;28;20538;-66
2021/10/30 05:52:43;;;;;;;3.75;3.40;;;;;;;17.78;43.16;97355.91;5094285;28;20017;-61
2021/10/30 05:55:09;;;;;;;4.80;3.53;;;;;;;17.04;43.74;97356.19;5094278;28;20085;-62
2021/10/30 05:57:35;;;;;;;4.57;3.72;;;;;;;15.94;45.21;97366.78;5094053;28;20028;-60
2021/10/30 06:00:03;;;;;;;6.13;3.50;;;;;;;15.26;46.73;97356.59;5093780;28;20040;-62
2021/10/30 06:02:28;;;;;;;4.35;3.60;;;;;;;15.48;46.66;97365.34;5093198;28;20066;-63
2021/10/30 06:04:54;;;;;;;5.72;3.88;;;;;;;16.73;44.34;97363.03;5094002;28;20059;-65
2021/10/30 06:07:21;;;;;;;4.18;3.50;;;;;;;18.10;42.03;97370.09;5094010;28;20040;-63
2021/10/30 06:09:52;;;;;;;3.65;3.03;;;;;;;19.04;40.36;97369.19;5093945;28;20040;-63
2021/10/30 06:12:17;;;;;;;7.97;3.83;;;;;;;20.03;38.60;97369.47;5093917;28;20047;-64
2021/10/30 06:14:43;;;;;;;5.22;2.88;;;;;;;21.01;36.92;97362.28;5093746;28;20051;-62
2021/10/30 06:17:09;;;;;;;5.78;3.95;;;;;;;21.80;35.58;97357.84;5093915;28;20109;-62
2021/10/30 06:19:34;;;;;;;4.47;3.33;;;;;;;22.58;33.90;97363.78;5093672;28;20020;-61
2021/10/30 06:22:00;;;;;;;5.10;3.67;;;;;;;22.62;33.18;97363.56;5093744;28;20052;-66
2021/10/30 06:24:26;;;;;;;8.25;4.40;;;;;;;23.16;32.94;97369.34;5093550;28;20035;-63
2021/10/30 06:26:52;;;;;;;5.03;4.20;;;;;;;23.84;32.07;97373.94;5093666;28;20043;-63
2021/10/30 06:29:17;;;;;;;5.85;4.60;;;;;;;24.29;31.13;97377.56;5093747;28;20024;-63
2021/10/30 06:31:43;;;;;;;6.40;4.22;;;;;;;24.90;30.35;97377.97;5093723;28;20481;-61
2021/10/30 06:34:10;;;;;;;7.25;4.68;;;;;;;25.64;29.40;97372.72;5093588;28;20035;-63
2021/10/30 06:36:36;;;;;;;8.18;4.55;;;;;;;26.08;28.41;97378.66;5093457;28;20028;-61
2021/10/30 06:39:03;;;;;;;5.07;4.47;;;;;;;26.36;28.09;97380.72;5093375;28;20024;-64
2021/10/30 06:41:29;;;;;;;5.28;4.13;;;;;;;26.81;27.65;97389.22;5093471;28;20028;-62
2021/10/30 06:43:55;;;;;;;6.03;4.65;;;;;;;27.22;26.91;97384.59;5093351;28;20359;-64
2021/10/30 06:46:20;;;;;;;4.68;4.05;;;;;;;27.86;26.64;97385.84;5093435;28;20027;-67
2021/10/30 06:48:49;;;;;;;4.38;3.60;;;;;;;28.03;26.19;97384.22;5093382;28;20039;-66
2021/10/30 06:51:15;;;;;;;5.28;3.78;;;;;;;27.83;25.88;97391.50;5093230;28;20097;-64
2021/10/30 06:53:41;;;;;;;4.93;3.85;;;;;;;27.00;26.15;97383.06;5093386;28;20470;-63
2021/10/30 06:56:11;;;;;;;3.95;2.90;;;;;;;25.29;27.58;97386.31;5093273;28;20052;-64
2021/10/30 06:58:37;;;;;;;3.60;3.10;;;;;;;24.08;29.95;97383.63;5094284;28;20059;-63
2021/10/30 07:01:03;;;;;;;3.28;2.67;;;;;;;22.33;32.51;97388.69;5093319;28;20028;-66
2021/10/30 07:03:29;;;;;;;4.05;3.10;;;;;;;19.72;36.63;97389.09;5093261;28;20097;-59
2021/10/30 07:05:54;;;;;;;3.70;2.80;;;;;;;18.63;39.63;97383.91;5093314;28;20116;-63
2021/10/30 07:08:20;;;;;;;7.28;3.72;;;;;;;17.66;42.09;97388.31;5093242;28;20028;-61
2021/10/30 07:10:45;;;;;;;4.47;3.05;;;;;;;16.89;43.09;97389.53;5093197;28;20111;-63
2021/10/30 07:13:12;;;;;;;3.75;3.17;;;;;;;15.96;45.72;97396.59;5095048;28;20028;-60
2021/10/30 07:15:38;;;;;;;4.43;2.95;;;;;;;15.29;48.21;97389.84;5097212;28;20073;-63
2021/10/30 07:18:03;;;;;;;6.18;3.20;;;;;;;14.75;49.19;97393.81;5097315;28;20024;-65
2021/10/30 07:20:29;;;;;;;7.70;3.30;;;;;;;14.34;50.17;97384.06;5097182;28;20016;-62
2021/10/30 07:22:54;;;;;;;4.72;3.28;;;;;;;14.04;50.58;97387.00;5097205;28;20027;-63
2021/10/30 07:25:21;;;;;;;5.82;3.35;;;;;;;13.83;51.18;97376.38;5097041;28;20031;-63
2021/10/30 07:27:52;;;;;;;8.65;3.40;;;;;;;13.74;52.74;97380.22;5097052;28;20027;-63
2021/10/30 07:30:19;;;;;;;2.63;2.30;;;;;;;13.56;52.21;97380.88;5097023;28;20035;-62
2021/10/30 07:32:44;;;;;;;3.22;2.83;;;;;;;13.54;52.99;97385.34;5097064;28;20385;-61
2021/10/30 07:35:11;;;;;;;3.45;3.00;;;;;;;13.51;53.84;97389.81;5096911;28;20016;-60
2021/10/30 07:37:37;;;;;;;5.38;3.38;;;;;;;13.32;54.17;97373.81;5097015;28;20102;-64
2021/10/30 07:40:04;;;;;;;4.03;2.90;;;;;;;12.94;54.32;97378.66;5096808;28;20028;-66
2021/10/30 07:42:30;;;;;;;4.93;3.05;;;;;;;12.49;55.81;97388.84;5096827;28;20020;-64
2021/10/30 07:44:56;;;;;;;3.28;2.97;;;;;;;12.31;57.74;97385.91;5096746;28;20090;-64
2021/10/30 07:47:22;;;;;;;4.63;3.30;;;;;;;12.14;57.42;97386.44;5096771;28;20478;-65
2021/10/30 07:49:48;;;;;;;4.75;3.50;;;;;;;11.95;57.71;97391.34;5096753;28;20099;-65
2021/10/30 07:52:14;;;;;;;5.18;3.00;;;;;;;11.88;58.86;97393.28;5096600;28;20016;-65
2021/10/30 07:54:40;;;;;;;5.72;3.50;;;;;;;11.77;58.75;97387.50;5096567;28;20020;-64
2021/10/30 07:57:08;;;;;;;4.35;3.20;;;;;;;11.73;58.24;97384.97;5096554;28;20024;-65
2021/10/30 07:59:35;;;;;;;6.65;3.20;;;;;;;11.62;58.74;97387.06;5096238;28;20051;-62
2021/10/30 08:02:03;;;;;;;3.97;2.85;;;;;;;11.69;58.57;97378.13;5096381;28;20049;-63
2021/10/30 08:04:35;;;;;;;5.00;3.38;;;;;;;12.05;59.42;97384.94;5096213;28;20021;-63
2021/10/30 08:07:03;;;;;;;5.57;3.45;;;;;;;12.09;58.25;97380.47;5096366;28;20074;-63
2021/10/30 08:09:29;;;;;;;7.75;4.07;;;;;;;12.09;58.18;97383.09;5096207;28;20107;-67
2021/10/30 08:11:56;;;;;;;8.20;3.55;;;;;;;12.04;58.19;97384.97;5096195;28;20412;-65
2021/10/30 08:14:22;;;;;;;5.93;3.42;;;;;;;11.91;58.56;97382.72;5095026;28;20386;-65
2021/10/30 08:16:47;;;;;;;5.28;3.20;;;;;;;11.85;59.12;97380.28;5096156;28;20138;-62
2021/10/30 08:19:13;;;;;;;7.25;3.63;;;;;;;11.82;58.80;97382.97;5096014;28;20077;-65
2021/10/30 08:21:39;;;;;;;5.10;3.25;;;;;;;11.86;58.30;97371.53;5096007;28;20498;-61
2021/10/30 08:24:05;;;;;;;5.90;3.90;;;;;;;11.91;58.50;97368.72;5094914;28;20028;-63
2021/10/30 08:26:31;;;;;;;3.65;3.13;;;;;;;11.95;57.39;97368.59;5095938;28;20099;-60
2021/10/30 08:28:58;;;;;;;7.03;3.22;;;;;;;12.03;57.20;97363.13;5095898;28;20050;-65
2021/10/30 08:31:24;;;;;;;6.35;3.40;;;;;;;12.05;57.27;97377.06;5096035;28;20032;-64
2021/10/30 08:33:51;;;;;;;4.63;3.17;;;;;;;12.08;56.87;97363.88;5095841;28;20537;-67
2021/10/30 08:36:17;;;;;;;6.45;3.10;;;;;;;12.16;55.47;97363.63;5095831;28;20028;-62
2021/10/30 08:38:43;;;;;;;3.85;2.72;;;;;;;12.11;53.69;97357.69;5095614;28;20024;-65
2021/10/30 08:41:08;;;;;;;4.85;2.80;;;;;;;12.13;54.11;97363.72;5095669;28;20032;-63
2021/10/30 08:43:34;;;;;;;4.63;2.85;;;;;;;12.13;54.69;97367.22;5095563;28;20374;-66
2021/10/30 08:46:00;;;;;;;4.97;3.03;;;;;;;12.18;55.14;97361.81;5095608;28;20107;-62
2021/10/30 08:48:31;;;;;;;5.50;3.15;;;;;;;12.34;54.88;97362.19;5095673;28;20051;-63
2021/10/30 08:50:57;;;;;;;;;;;;;;;12.44;54.76;97368.03;5095934;28;20466;-66
2021/10/30 08:53:27;;;;;;;4.95;2.80;;;;;;;12.47;52.98;97364.44;5095404;28;19918;-66
2021/10/30 08:55:54;;;;;;;7.47;2.95;;;;;;;12.45;52.62;97367.09;5095529;28;20111;-65
2021/10/30 08:58:20;;;;;;;4.75;3.20;;;;;;;12.51;53.79;97363.41;5095150;28;20366;-64
2021/10/30 09:00:49;;;;;;;5.25;2.95;;;;;;;12.70;53.36;97358.41;5095396;28;20031;-64
2021/10/30 09:03:18;;;;;;;5.75;2.72;;;;;;;12.70;52.16;97354.94;5095253;28;20496;-66
2021/10/30 09:05:47;;;;;;;5.95;3.17;;;;;;;12.58;54.19;97364.91;5095075;28;20133;-66
2021/10/30 09:08:14;;;;;;;4.57;3.15;;;;;;;12.50;54.50;97359.91;5095085;28;20023;-64
2021/10/30 09:10:46;;;;;;;7.82;3.15;;;;;;;12.46;54.44;97347.81;5095074;28;20111;-64
2021/10/30 09:13:13;;;;;;;5.28;3.50;;;;;;;12.47;54.80;97348.69;5095110;28;20099;-65
2021/10/30 09:15:50;;;;;;;4.95;3.28;;;;;;;12.50;54.36;97352.03;5094929;28;20020;-63
2021/10/30 09:18:32;;;;;;;4.60;3.08;;;;;;;12.73;53.93;97345.19;5095080;28;20103;-63
2021/10/30 09:21:14;;;;;;;4.68;3.67;;;;;;;12.92;54.41;97343.69;5094984;28;20032;-62
2021/10/30 09:23:55;;;;;;;5.32;3.35;;;;;;;13.00;52.77;97354.78;5095005;28;20074;-61
2021/10/30 09:26:25;;;;;;;4.07;3.35;;;;;;;13.01;52.49;97346.00;5094800;28;20473;-60
2021/10/30 09:29:09;;;;;;;4.35;3.22;;;;;;;13.00;53.38;97341.66;5094771;28;20036;-62
2021/10/30 09:31:35;;;;;;;4.55;3.05;;;;;;;13.06;51.48;97332.72;5094732;28;20533;-62
2021/10/30 09:34:06;;;;;;;5.15;3.13;;;;;;;12.98;52.85;97333.81;5094739;28;20121;-63
2021/10/30 09:36:43;;;;;;;8.50;2.75;;;;;;;13.02;52.54;97332.81;5094643;28;20061;-66
2021/10/30 09:39:12;;;;;;;4.05;3.03;;;;;;;13.16;52.02;97334.09;5094670;28;20458;-64
2021/10/30 09:41:44;;;;;;;4.63;3.30;;;;;;;13.27;53.97;97329.31;5094521;28;20054;-61
2021/10/30 09:44:12;;;;;;;4.43;3.17;;;;;;;13.21;52.61;97312.91;5094406;28;20039;-65
2021/10/30 09:46:44;;;;;;;6.35;4.07;;;;;;;13.07;53.30;97313.41;5094430;28;20055;-60
2021/10/30 09:49:19;;;;;;;6.47;2.97;;;;;;;13.21;53.65;97311.13;5094408;28;20021;-64
2021/10/30 09:51:50;;;;;;;3.47;3.15;;;;;;;13.29;52.64;97308.22;5094385;28;20024;-64
2021/10/30 09:54:46;;;;;;;4.50;3.70;;;;;;;13.38;52.00;97299.16;5094334;28;20052;-63
2021/10/30 09:57:25;;;;;;;3.80;3.38;;;;;;;13.49;52.70;97304.88;5094133;28;20469;-63
2021/10/30 09:59:52;;;;;;;5.32;4.00;;;;;;;13.57;52.67;97299.34;5093902;28;20126;-62
2021/10/30 10:02:21;;;;;;;5.32;3.25;;;;;;;13.52;51.06;97299.50;5094079;28;20367;-62
2021/10/30 10:04:49;;;;;;;4.50;3.42;;;;;;;13.45;51.89;97295.38;5093968;28;20028;-61
2021/10/30 10:07:17;;;;;;;6.30;3.65;;;;;;;13.42;52.66;97292.03;5093985;28;20032;-62
2021/10/30 10:09:44;;;;;;;6.20;3.65;;;;;;;13.35;52.41;97291.38;5093973;28;20111;-64
2021/10/30 10:12:13;;;;;;;6.72;3.60;;;;;;;13.32;52.55;97280.97;5093860;28;20035;-60
2021/10/30 10:14:42;;;;;;;6.97;3.38;;;;;;;13.33;51.97;97280.94;5093890;28;20024;-66
2021/10/30 10:17:08;;;;;;;8.02;3.42;;;;;;;13.26;51.92;97280.31;5093713;28;20478;-67
2021/10/30 10:19:36;;;;;;;5.32;3.15;;;;;;;13.26;52.33;97282.06;5093834;28;20024;-63
2021/10/30 10:22:02;;;;;;;4.38;3.50;;;;;;;13.16;53.75;97278.94;5093779;28;20099;-64
2021/10/30 10:24:35;;;;;;;9.38;4.28;;;;;;;13.12;53.84;97282.56;5093678;28;20028;-64
2021/10/30 10:27:04;;;;;;;4.97;4.07;;;;;;;13.16;53.54;97283.31;5093750;28;20020;-61
2021/10/30 10:29:36;;;;;;;4.75;3.60;;;;;;;12.96;53.90;97267.38;5093785;28;20051;-63
2021/10/30 10:32:06;;;;;;;7.53;4.10;;;;;;;13.01;54.97;97275.09;5093682;28;20039;-65
2021/10/30 10:34:34;;;;;;;10.02;3.65;;;;;;;12.84;53.91;97263.44;5093641;28;20020;-63
2021/10/30 10:37:12;;;;;;;5.43;3.60;;;;;;;12.78;53.86;97261.03;5093570;28;20028;-62
2021/10/30 10:39:40;;;;;;;4.35;3.30;;;;;;;12.92;54.98;97265.78;5092178;28;20394;-64
2021/10/30 10:42:08;;;;;;;6.03;3.78;;;;;;;13.01;53.83;97260.19;5093384;28;20141;-61
2021/10/30 10:44:42;;;;;;;4.68;3.50;;;;;;;13.09;53.54;97259.03;5093427;28;20390;-67
2021/10/30 10:47:33;;;;;;;5.68;3.78;;;;;;;13.04;53.56;97256.59;5092783;28;20032;-60
2021/10/30 10:50:29;;;;;;;6.50;4.00;;;;;;;13.04;54.26;97253.97;5093385;28;20473;-60
2021/10/30 10:53:01;;;;;;;11.88;6.20;;;;;;;13.14;54.50;97257.97;5091277;28;20398;-62
2021/10/30 10:55:46;;;;;;;6.13;4.43;;;;;;;13.23;53.36;97255.91;5093184;28;20035;-63
2021/10/30 10:58:13;;;;;;;5.07;3.92;;;;;;;13.04;53.98;97246.09;5093209;28;20493;-59
2021/10/30 11:01:00;;;;;;;6.22;4.20;;;;;;;13.15;54.33;97248.31;5093284;28;20051;-62
2021/10/30 11:03:27;;;;;;;12.32;4.07;;;;;;;13.16;53.83;97247.41;5093292;28;20028;-65
2021/10/30 11:05:57;;;;;;;7.50;3.45;;;;;;;13.18;53.58;97250.81;5093056;28;20039;-60
2021/10/30 11:08:34;;;;;;;4.18;3.63;;;;;;;13.10;54.02;97242.38;5093178;28;20482;-66
2021/10/30 11:11:22;;;;;;;9.45;3.85;;;;;;;13.02;54.79;97246.16;5093193;28;20032;-64
2021/10/30 11:14:01;;;;;;;4.88;3.90;;;;;;;12.93;55.07;97235.97;5093238;28;20446;-64
2021/10/30 11:16:53;;;;;;;11.80;6.65;;;;;;;12.92;55.85;97239.53;5092040;28;20039;-62
2021/10/30 11:19:29;;;;;;;7.80;4.20;;;;;;;12.95;55.83;97230.66;5093142;28;20046;-64
2021/10/30 11:22:15;;;;;;;6.05;4.50;;;;;;;12.96;55.85;97229.75;5093005;28;20028;-63
2021/10/30 11:25:01;;;;;;;10.75;6.10;;;;;;;13.09;55.77;97231.00;5092835;28;20401;-62
2021/10/30 11:27:27;;;;;;;8.07;4.55;;;;;;;13.12;54.70;97228.28;5093016;28;20058;-63
2021/10/30 11:29:56;;;;;;;10.18;5.70;;;;;;;13.16;55.31;97229.03;5092983;28;20024;-64
2021/10/30 11:32:22;;;;;;;5.20;4.07;;;;;;;13.18;54.77;97219.31;5092912;28;20506;-63
2021/10/30 11:34:58;;;;;;;4.43;3.63;;;;;;;13.27;55.82;97220.72;5092930;28;20031;-66
2021/10/30 11:37:24;;;;;;;5.80;3.35;;;;;;;13.29;54.75;97220.66;5092949;28;20032;-66